createdAt,value
2023-02-05T00:00:35.314Z,-4.44
2023-02-05T00:03:39.019Z,-4.09
2023-02-05T00:06:41.518Z,-3.96
2023-02-05T00:09:43.882Z,-3.84
2023-02-05T00:12:46.599Z,-3.81
2023-02-05T00:15:49.019Z,-3.95
2023-02-05T00:18:52.719Z,-3.73
2023-02-05T00:21:55.188Z,-3.75
2023-02-05T00:24:57.582Z,-3.84
2023-02-05T00:28:00.237Z,-3.84
2023-02-05T00:31:11.417Z,-3.74
2023-02-05T00:34:13.974Z,-3.74
2023-02-05T00:37:17.669Z,-3.50
2023-02-05T00:40:20.072Z,-3.73
2023-02-05T00:43:22.838Z,-3.33
2023-02-05T00:46:25.562Z,-3.13
2023-02-05T00:49:29.128Z,-3.29
2023-02-05T00:52:31.508Z,-3.47
2023-02-05T00:55:34.118Z,-3.04
2023-02-05T00:58:36.872Z,-3.02
2023-02-05T01:01:39.337Z,-2.99
2023-02-05T01:04:41.856Z,-2.85
2023-02-05T01:07:44.319Z,-2.80
2023-02-05T01:10:49.277Z,-2.86
2023-02-05T01:13:51.700Z,-2.58
2023-02-05T01:16:54.068Z,-2.60
2023-02-05T01:19:57.069Z,-2.81
2023-02-05T01:22:59.491Z,-2.63
2023-02-05T01:26:02.070Z,-2.80
2023-02-05T01:29:04.468Z,-2.81
2023-02-05T01:32:06.913Z,-2.68
2023-02-05T01:35:09.752Z,-2.92
2023-02-05T01:38:13.209Z,-2.91
2023-02-05T01:41:15.941Z,-2.83
2023-02-05T01:44:25.023Z,-3.03
2023-02-05T01:47:27.400Z,-3.30
2023-02-05T01:50:48.723Z,-3.26
2023-02-05T01:53:51.950Z,-3.32
2023-02-05T01:57:23.447Z,-3.09
2023-02-05T02:00:26.382Z,-3.23
2023-02-05T02:03:31.469Z,-3.40
2023-02-05T02:06:35.989Z,-3.51
2023-02-05T02:09:40.902Z,-3.30
2023-02-05T02:12:45.572Z,-3.45
2023-02-05T02:15:50.079Z,-3.20
2023-02-05T02:18:53.575Z,-3.10
2023-02-05T02:22:29.561Z,-3.12
2023-02-05T02:25:53.589Z,-3.04
2023-02-05T02:29:23.184Z,-2.96
2023-02-05T02:32:28.482Z,-3.04
2023-02-05T02:35:41.298Z,-3.20
2023-02-05T02:39:06.597Z,-3.10
2023-02-05T02:42:19.580Z,-3.45
2023-02-05T02:45:26.352Z,-3.46
2023-02-05T02:48:32.421Z,-3.68
2023-02-05T02:51:39.572Z,-3.46
2023-02-05T02:54:46.674Z,-3.65
2023-02-05T02:57:52.571Z,-3.47
2023-02-05T03:00:58.076Z,-3.59
2023-02-05T03:04:13.409Z,-3.75
2023-02-05T03:07:21.838Z,-3.72
2023-02-05T03:10:43.410Z,-3.81
2023-02-05T03:13:48.156Z,-3.86
2023-02-05T03:16:54.459Z,-4.02
2023-02-05T03:20:15.658Z,-4.04
2023-02-05T03:23:18.665Z,-4.00
2023-02-05T03:26:28.901Z,-3.97
2023-02-05T03:29:44.748Z,-4.15
2023-02-05T03:33:04.313Z,-4.09
2023-02-05T03:36:21.529Z,-4.09
2023-02-05T03:39:33.208Z,-4.26
2023-02-05T03:42:57.017Z,-3.84
2023-02-05T03:46:08.371Z,-3.75
2023-02-05T03:49:25.615Z,-3.81
2023-02-05T03:52:38.205Z,-3.90
2023-02-05T03:55:46.548Z,-4.10
2023-02-05T03:58:54.110Z,-4.13
2023-02-05T04:01:57.566Z,-4.24
2023-02-05T04:05:00.352Z,-4.19
2023-02-05T04:08:04.609Z,-4.40
2023-02-05T04:11:13.677Z,-4.43
2023-02-05T04:14:17.950Z,-4.41
2023-02-05T04:17:21.010Z,-4.38
2023-02-05T04:20:24.247Z,-4.29
2023-02-05T04:23:27.139Z,-4.22
2023-02-05T04:26:32.362Z,-4.03
2023-02-05T04:29:38.952Z,-4.00
2023-02-05T04:32:42.460Z,-4.01
2023-02-05T04:35:45.722Z,-3.95
2023-02-05T04:38:48.754Z,-3.89
2023-02-05T04:41:51.535Z,-3.96
2023-02-05T04:44:54.483Z,-4.03
2023-02-05T04:47:57.777Z,-3.88
2023-02-05T04:51:00.386Z,-4.05
2023-02-05T04:54:02.997Z,-3.77
2023-02-05T04:57:05.393Z,-3.71
2023-02-05T05:00:10.084Z,-3.66
2023-02-05T05:03:12.437Z,-3.75
2023-02-05T05:06:15.882Z,-3.79
2023-02-05T05:09:20.889Z,-3.96
2023-02-05T05:12:23.540Z,-3.86
2023-02-05T05:15:25.890Z,-3.83
2023-02-05T05:18:28.488Z,-3.83
2023-02-05T05:21:30.970Z,-3.82
2023-02-05T05:24:33.322Z,-3.91
2023-02-05T05:27:35.782Z,-3.97
2023-02-05T05:30:40.748Z,-3.79
2023-02-05T05:33:43.145Z,-3.79
2023-02-05T05:36:47.254Z,-3.65
2023-02-05T05:40:08.511Z,-3.75
2023-02-05T05:43:35.066Z,-3.84
2023-02-05T05:46:37.574Z,-3.80
2023-02-05T05:49:40.253Z,-3.59
2023-02-05T05:52:42.640Z,-3.50
2023-02-05T05:55:45.068Z,-3.55
2023-02-05T05:58:48.196Z,-3.38
2023-02-05T06:01:50.605Z,-3.24
2023-02-05T06:04:53.058Z,-3.06
2023-02-05T06:07:55.450Z,-2.87
2023-02-05T06:10:58.872Z,-3.09
2023-02-05T06:14:01.397Z,-2.48
2023-02-05T06:17:03.888Z,-2.52
2023-02-05T06:20:06.720Z,-2.53
2023-02-05T06:23:09.132Z,-2.85
2023-02-05T06:26:11.641Z,-2.70
2023-02-05T06:29:14.847Z,-2.63
2023-02-05T06:32:17.331Z,-2.65
2023-02-05T06:35:19.889Z,-2.51
2023-02-05T06:38:22.489Z,-2.68
2023-02-05T06:41:24.962Z,-2.29
2023-02-05T06:44:27.357Z,-2.25
2023-02-05T06:47:29.795Z,-2.18
2023-02-05T06:50:32.332Z,-2.58
2023-02-05T06:53:34.724Z,-2.30
2023-02-05T06:56:37.171Z,-2.37
2023-02-05T06:59:39.614Z,-2.36
2023-02-05T07:02:42.472Z,-2.17
2023-02-05T07:05:45.090Z,-1.91
2023-02-05T07:08:47.827Z,-1.87
2023-02-05T07:11:50.454Z,-1.90
2023-02-05T07:14:53.166Z,-1.32
2023-02-05T07:17:55.560Z,-0.61
2023-02-05T07:20:57.900Z,-0.71
2023-02-05T07:24:00.612Z,-1.00
2023-02-05T07:27:03.077Z,-1.13
2023-02-05T07:30:06.256Z,-1.27
2023-02-05T07:33:10.187Z,-1.43
2023-02-05T07:36:16.305Z,-1.69
2023-02-05T07:39:19.378Z,-1.38
2023-02-05T07:42:21.774Z,-1.25
2023-02-05T07:45:30.834Z,-1.43
2023-02-05T07:48:33.912Z,-1.11
2023-02-05T07:51:36.484Z,-1.12
2023-02-05T07:54:38.972Z,-0.49
2023-02-05T07:57:41.333Z,-0.01
2023-02-05T08:00:44.056Z,-0.17
2023-02-05T08:03:46.490Z,-0.45
2023-02-05T08:06:48.898Z,-0.70
2023-02-05T08:09:51.343Z,-0.92
2023-02-05T08:12:54.697Z,-0.89
2023-02-05T08:15:57.515Z,-0.88
2023-02-05T08:19:00.035Z,-0.99
2023-02-05T08:22:02.355Z,-0.67
2023-02-05T08:25:07.213Z,-0.81
2023-02-05T08:28:09.712Z,-0.90
2023-02-05T08:31:14.422Z,-0.53
2023-02-05T08:34:17.841Z,1.55
2023-02-05T08:37:21.138Z,1.06
2023-02-05T08:40:24.974Z,1.09
2023-02-05T08:43:27.339Z,0.96
2023-02-05T08:46:37.437Z,1.01
2023-02-05T08:49:46.316Z,0.65
2023-02-05T08:52:49.797Z,0.54
2023-02-05T08:56:00.489Z,1.88
2023-02-05T08:59:02.993Z,3.45
2023-02-05T09:02:05.587Z,3.24
2023-02-05T09:05:09.573Z,3.16
2023-02-05T09:08:12.182Z,6.03
2023-02-05T09:11:20.089Z,7.10
2023-02-05T09:14:22.406Z,8.06
2023-02-05T09:17:24.818Z,9.04
2023-02-05T09:20:29.694Z,9.82
2023-02-05T09:23:32.467Z,9.60
2023-02-05T09:26:35.713Z,8.89
2023-02-05T09:29:38.147Z,8.87
2023-02-05T09:32:40.905Z,8.05
2023-02-05T09:35:43.914Z,8.41
2023-02-05T09:38:47.154Z,8.42
2023-02-05T09:42:04.545Z,8.13
2023-02-05T09:45:34.007Z,7.34
2023-02-05T09:48:50.067Z,7.90
2023-02-05T09:51:59.697Z,7.58
2023-02-05T09:55:07.727Z,8.25
2023-02-05T09:58:21.478Z,7.91
2023-02-05T10:01:51.705Z,8.31
2023-02-05T10:04:57.948Z,7.66
2023-02-05T10:08:22.698Z,8.38
2023-02-05T10:11:53.989Z,8.51
2023-02-05T10:15:04.120Z,8.60
2023-02-05T10:18:40.198Z,7.77
2023-02-05T10:22:11.781Z,8.84
2023-02-05T10:25:33.705Z,7.94
2023-02-05T10:29:10.780Z,7.68
2023-02-05T10:32:23.667Z,8.57
2023-02-05T10:35:44.336Z,8.15
2023-02-05T10:38:46.786Z,8.11
2023-02-05T10:41:59.520Z,8.96
2023-02-05T10:45:13.482Z,9.22
2023-02-05T10:48:18.969Z,9.24
2023-02-05T10:51:24.198Z,6.53
2023-02-05T10:54:29.502Z,6.88
2023-02-05T10:57:36.276Z,5.78
2023-02-05T11:00:39.861Z,2.93
2023-02-05T11:03:52.641Z,2.52
2023-02-05T11:06:55.061Z,2.06
2023-02-05T11:10:13.702Z,2.17
2023-02-05T11:13:21.702Z,2.23
2023-02-05T11:16:34.180Z,2.70
2023-02-05T11:19:37.812Z,1.78
2023-02-05T11:22:40.461Z,1.60
2023-02-05T11:25:49.898Z,1.31
2023-02-05T11:28:52.382Z,0.96
2023-02-05T11:31:54.826Z,0.78
2023-02-05T11:35:18.273Z,0.50
2023-02-05T11:38:30.517Z,0.71
2023-02-05T11:41:51.995Z,0.69
2023-02-05T11:45:00.499Z,0.37
2023-02-05T11:48:22.290Z,0.49
2023-02-05T11:51:45.747Z,1.12
2023-02-05T11:54:49.124Z,1.20
2023-02-05T11:58:00.006Z,0.92
2023-02-05T12:01:20.697Z,0.95
2023-02-05T12:04:24.706Z,0.88
2023-02-05T12:07:33.845Z,0.52
2023-02-05T12:11:15.012Z,2.82
2023-02-05T12:14:28.970Z,4.05
2023-02-05T12:17:57.561Z,3.27
2023-02-05T12:21:02.862Z,2.61
2023-02-05T12:24:35.798Z,1.86
2023-02-05T12:27:55.094Z,1.61
2023-02-05T12:31:19.761Z,1.24
2023-02-05T12:34:33.169Z,1.05
2023-02-05T12:38:11.150Z,0.43
2023-02-05T12:41:33.754Z,0.26
2023-02-05T12:44:55.485Z,0.09
2023-02-05T12:48:09.545Z,-0.04
2023-02-05T12:51:33.574Z,-0.22
2023-02-05T12:55:06.452Z,-0.40
2023-02-05T12:58:11.581Z,-0.46
2023-02-05T13:01:33.574Z,-0.47
2023-02-05T13:04:56.261Z,-0.76
2023-02-05T13:08:08.089Z,-0.66
2023-02-05T13:11:31.599Z,-0.75
2023-02-05T13:15:01.131Z,-0.73
2023-02-05T13:18:22.893Z,-0.85
2023-02-05T13:21:44.577Z,-0.73
2023-02-05T13:25:10.675Z,-0.47
2023-02-05T13:28:40.048Z,-0.44
2023-02-05T13:31:48.535Z,-0.61
2023-02-05T13:34:54.819Z,-0.33
2023-02-05T13:38:19.774Z,-0.86
2023-02-05T13:41:58.965Z,-0.78
2023-02-05T13:45:23.719Z,-1.40
2023-02-05T13:48:38.190Z,-0.98
2023-02-05T13:52:10.086Z,0.77
2023-02-05T13:55:50.964Z,1.93
2023-02-05T13:59:14.150Z,2.65
2023-02-05T14:02:45.070Z,3.14
2023-02-05T14:05:47.522Z,3.15
2023-02-05T14:08:56.979Z,2.73
2023-02-05T14:12:03.205Z,2.78
2023-02-05T14:15:17.429Z,2.63
2023-02-05T14:18:41.423Z,2.45
2023-02-05T14:21:46.564Z,3.00
2023-02-05T14:24:50.367Z,3.00
2023-02-05T14:27:55.390Z,2.70
2023-02-05T14:30:59.378Z,2.33
2023-02-05T14:34:27.529Z,1.54
2023-02-05T14:37:39.572Z,1.28
2023-02-05T14:40:42.302Z,0.83
2023-02-05T14:43:49.007Z,0.43
2023-02-05T14:47:00.064Z,0.31
2023-02-05T14:50:11.364Z,-0.27
2023-02-05T14:53:26.702Z,-0.54
2023-02-05T14:56:44.069Z,-0.72
2023-02-05T14:59:52.621Z,-0.71
2023-02-05T15:03:15.300Z,-0.73
2023-02-05T15:06:18.534Z,-0.78
2023-02-05T15:09:37.634Z,-1.12
2023-02-05T15:13:02.738Z,-1.30
2023-02-05T15:16:10.965Z,-1.62
2023-02-05T15:19:16.741Z,-1.87
2023-02-05T15:22:26.557Z,-1.98
2023-02-05T15:25:34.871Z,-2.06
2023-02-05T15:28:46.673Z,-2.27
2023-02-05T15:31:54.810Z,-2.15
2023-02-05T15:35:14.392Z,-2.20
2023-02-05T15:38:22.726Z,-2.25
2023-02-05T15:41:25.600Z,-2.22
2023-02-05T15:44:30.718Z,-2.51
2023-02-05T15:47:33.130Z,-2.58
2023-02-05T15:50:51.963Z,-2.69
2023-02-05T15:53:57.549Z,-2.96
2023-02-05T15:57:00.065Z,-2.76
2023-02-05T16:00:09.201Z,-2.59
2023-02-05T16:03:30.213Z,-2.75
2023-02-05T16:06:36.535Z,-2.92
2023-02-05T16:09:46.509Z,-2.82
2023-02-05T16:13:17.163Z,-2.74
2023-02-05T16:16:24.416Z,-2.80
2023-02-05T16:20:12.745Z,-2.83
2023-02-05T16:23:31.633Z,-2.83
2023-02-05T16:26:46.364Z,-3.18
2023-02-05T16:29:53.692Z,-3.05
2023-02-05T16:32:58.417Z,-3.02
2023-02-05T16:36:05.105Z,-3.05
2023-02-05T16:39:19.231Z,-3.02
2023-02-05T16:42:54.129Z,-3.05
2023-02-05T16:46:08.374Z,-3.03
2023-02-05T16:49:23.430Z,-3.02
2023-02-05T16:52:35.368Z,-3.30
2023-02-05T16:55:42.306Z,-3.61
2023-02-05T16:58:48.484Z,-3.43
2023-02-05T17:01:52.298Z,-3.33
2023-02-05T17:04:57.770Z,-3.67
2023-02-05T17:08:04.710Z,-3.36
2023-02-05T17:11:28.037Z,-3.58
2023-02-05T17:14:32.380Z,-3.44
2023-02-05T17:17:48.689Z,-3.65
2023-02-05T17:20:51.628Z,-3.65
2023-02-05T17:23:57.114Z,-3.57
2023-02-05T17:26:59.738Z,-3.43
2023-02-05T17:30:05.318Z,-3.62
2023-02-05T17:33:18.039Z,-3.56
2023-02-05T17:36:21.250Z,-3.32
2023-02-05T17:39:24.113Z,-3.50
2023-02-05T17:42:27.325Z,-3.45
2023-02-05T17:45:36.735Z,-3.43
2023-02-05T17:48:40.129Z,-3.33
2023-02-05T17:51:42.916Z,-3.38
2023-02-05T17:54:46.266Z,-3.44
2023-02-05T17:57:49.568Z,-3.41
2023-02-05T18:00:52.429Z,-3.53
2023-02-05T18:03:55.229Z,-3.64
2023-02-05T18:06:57.951Z,-3.58
2023-02-05T18:10:01.222Z,-3.61
2023-02-05T18:13:04.078Z,-3.42
2023-02-05T18:16:06.888Z,-3.43
2023-02-05T18:19:09.568Z,-3.50
2023-02-05T18:22:12.545Z,-3.61
2023-02-05T18:25:15.172Z,-3.61
2023-02-05T18:28:17.572Z,-3.60
2023-02-05T18:31:20.679Z,-3.48
2023-02-05T18:34:23.398Z,-3.64
2023-02-05T18:37:26.611Z,-3.42
2023-02-05T18:40:29.597Z,-3.41
2023-02-05T18:43:32.129Z,-3.56
2023-02-05T18:46:35.164Z,-3.40
2023-02-05T18:49:37.817Z,-3.43
2023-02-05T18:52:40.576Z,-3.41
2023-02-05T18:55:42.962Z,-3.67
2023-02-05T18:58:52.173Z,-3.43
2023-02-05T19:01:54.829Z,-3.47
2023-02-05T19:04:57.498Z,-3.47
2023-02-05T19:08:00.134Z,-3.48
2023-02-05T19:11:08.212Z,-3.58
2023-02-05T19:14:14.705Z,-3.73
2023-02-05T19:17:17.985Z,-3.75
2023-02-05T19:20:21.642Z,-3.67
2023-02-05T19:23:25.397Z,-3.60
2023-02-05T19:26:29.270Z,-3.68
2023-02-05T19:29:38.031Z,-3.80
2023-02-05T19:32:40.987Z,-3.89
2023-02-05T19:35:43.661Z,-3.74
2023-02-05T19:38:46.613Z,-3.84
2023-02-05T19:41:49.318Z,-3.90
2023-02-05T19:44:52.001Z,-4.00
2023-02-05T19:47:54.602Z,-4.03
2023-02-05T19:51:03.782Z,-3.86
2023-02-05T19:54:07.361Z,-3.76
2023-02-05T19:57:09.994Z,-3.98
2023-02-05T20:00:13.106Z,-3.86
2023-02-05T20:03:17.243Z,-3.83
2023-02-05T20:06:23.294Z,-4.37
2023-02-05T20:09:26.930Z,-3.84
2023-02-05T20:12:29.756Z,-4.06
2023-02-05T20:15:36.070Z,-4.31
2023-02-05T20:18:40.196Z,-4.24
2023-02-05T20:21:43.317Z,-4.15
2023-02-05T20:24:46.304Z,-3.94
2023-02-05T20:27:49.098Z,-4.10
2023-02-05T20:31:11.802Z,-3.95
2023-02-05T20:34:21.897Z,-4.23
2023-02-05T20:37:24.868Z,-4.18
2023-02-05T20:40:27.597Z,-4.30
2023-02-05T20:43:30.253Z,-4.35
2023-02-05T20:46:33.448Z,-4.33
2023-02-05T20:49:38.458Z,-4.44
2023-02-05T20:52:41.081Z,-4.23
2023-02-05T20:55:43.833Z,-4.38
2023-02-05T20:58:47.414Z,-4.22
2023-02-05T21:01:49.768Z,-4.31
2023-02-05T21:04:52.826Z,-3.99
2023-02-05T21:07:55.367Z,-4.27
2023-02-05T21:10:57.978Z,-4.35
2023-02-05T21:14:00.859Z,-4.16
2023-02-05T21:17:03.529Z,-4.11
2023-02-05T21:20:06.573Z,-4.17
2023-02-05T21:23:09.065Z,-4.11
2023-02-05T21:26:19.949Z,-4.18
2023-02-05T21:29:22.339Z,-4.07
2023-02-05T21:32:25.002Z,-4.01
2023-02-05T21:35:27.609Z,-4.27
2023-02-05T21:38:31.690Z,-4.22
2023-02-05T21:41:34.360Z,-4.16
2023-02-05T21:44:36.737Z,-4.08
2023-02-05T21:47:39.160Z,-4.11
2023-02-05T21:50:41.479Z,-3.97
2023-02-05T21:53:44.480Z,-4.11
2023-02-05T21:56:46.856Z,-3.85
2023-02-05T21:59:49.466Z,-4.03
2023-02-05T22:02:51.903Z,-4.05
2023-02-05T22:05:56.429Z,-4.07
2023-02-05T22:09:00.150Z,-3.87
2023-02-05T22:12:03.920Z,-3.99
2023-02-05T22:15:06.474Z,-4.38
2023-02-05T22:18:08.866Z,-4.25
2023-02-05T22:21:17.090Z,-4.35
2023-02-05T22:24:21.047Z,-4.06
2023-02-05T22:27:23.637Z,-4.05
2023-02-05T22:30:28.971Z,-4.20
2023-02-05T22:33:32.848Z,-4.18
2023-02-05T22:36:35.933Z,-4.26
2023-02-05T22:39:38.281Z,-4.19
2023-02-05T22:42:40.613Z,-4.45
2023-02-05T22:45:43.291Z,-4.50
2023-02-05T22:48:48.054Z,-4.36
2023-02-05T22:51:52.230Z,-4.37
2023-02-05T22:54:54.676Z,-4.31
2023-02-05T22:57:57.059Z,-4.48
2023-02-05T23:01:06.946Z,-4.55
2023-02-05T23:04:09.591Z,-4.41
2023-02-05T23:07:11.996Z,-4.37
2023-02-05T23:10:14.449Z,-4.39
2023-02-05T23:13:17.907Z,-4.28
2023-02-05T23:16:23.210Z,-4.28
2023-02-05T23:19:26.634Z,-4.26
2023-02-05T23:22:29.042Z,-4.16
2023-02-05T23:25:31.554Z,-4.16
2023-02-05T23:28:34.079Z,-4.04
2023-02-05T23:31:36.910Z,-4.06
2023-02-05T23:34:39.367Z,-3.53
2023-02-05T23:37:41.819Z,-3.56
2023-02-05T23:40:45.209Z,-3.58
2023-02-05T23:43:47.605Z,-3.48
2023-02-05T23:46:50.886Z,-3.18
2023-02-05T23:49:53.313Z,-3.36
2023-02-05T23:52:55.784Z,-3.31
2023-02-05T23:55:58.144Z,-3.06
2023-02-05T23:59:00.852Z,-3.06
